sensor_id;sensor_type;location;lat;lon;timestamp;temperature;humidity
25440;DHT22;13365;52.208;5.488;2024-03-07T00:01:38;10.60;99.90
25440;DHT22;13365;52.208;5.488;2024-03-07T00:04:04;10.70;99.90
25440;DHT22;13365;52.208;5.488;2024-03-07T00:06:29;10.50;99.90
25440;DHT22;13365;52.208;5.488;2024-03-07T00:08:55;10.40;99.90
25440;DHT22;13365;52.208;5.488;2024-03-07T00:11:20;10.30;99.90
25440;DHT22;13365;52.208;5.488;2024-03-07T00:13:46;10.30;99.90
25440;DHT22;13365;52.208;5.488;2024-03-07T00:16:11;10.20;99.90
25440;DHT22;13365;52.208;5.488;2024-03-07T00:18:37;10.20;99.90
25440;DHT22;13365;52.208;5.488;2024-03-07T00:21:02;10.20;99.90
25440;DHT22;13365;52.208;5.488;2024-03-07T00:23:28;10.00;99.90
25440;DHT22;13365;52.208;5.488;2024-03-07T00:25:54;9.90;99.90
25440;DHT22;13365;52.208;5.488;2024-03-07T00:28:19;10.00;99.90
25440;DHT22;13365;52.208;5.488;2024-03-07T00:30:45;9.90;99.90
25440;DHT22;13365;52.208;5.488;2024-03-07T00:33:11;9.90;99.90
25440;DHT22;13365;52.208;5.488;2024-03-07T00:35:36;9.90;99.90
25440;DHT22;13365;52.208;5.488;2024-03-07T00:38:02;9.70;99.90
25440;DHT22;13365;52.208;5.488;2024-03-07T00:40:28;9.60;99.90
25440;DHT22;13365;52.208;5.488;2024-03-07T00:42:53;9.70;99.90
25440;DHT22;13365;52.208;5.488;2024-03-07T00:45:19;9.60;99.90
25440;DHT22;13365;52.208;5.488;2024-03-07T00:47:44;9.70;99.90
25440;DHT22;13365;52.208;5.488;2024-03-07T00:50:10;9.70;99.90
25440;DHT22;13365;52.208;5.488;2024-03-07T00:52:35;9.80;99.90
25440;DHT22;13365;52.208;5.488;2024-03-07T00:55:01;9.70;99.90
25440;DHT22;13365;52.208;5.488;2024-03-07T00:57:27;9.70;99.90
25440;DHT22;13365;52.208;5.488;2024-03-07T00:59:52;9.70;99.90
25440;DHT22;13365;52.208;5.488;2024-03-07T01:02:18;9.60;99.90
25440;DHT22;13365;52.208;5.488;2024-03-07T01:04:43;9.40;99.90
25440;DHT22;13365;52.208;5.488;2024-03-07T01:07:09;9.40;99.90
25440;DHT22;13365;52.208;5.488;2024-03-07T01:09:34;9.30;99.90
25440;DHT22;13365;52.208;5.488;2024-03-07T01:12:01;9.20;99.90
25440;DHT22;13365;52.208;5.488;2024-03-07T01:14:29;9.10;99.90
25440;DHT22;13365;52.208;5.488;2024-03-07T01:16:56;9.00;99.90
25440;DHT22;13365;52.208;5.488;2024-03-07T01:19:21;8.70;99.90
25440;DHT22;13365;52.208;5.488;2024-03-07T01:21:47;8.70;99.90
25440;DHT22;13365;52.208;5.488;2024-03-07T01:24:13;8.80;99.90
25440;DHT22;13365;52.208;5.488;2024-03-07T01:26:43;8.70;99.90
25440;DHT22;13365;52.208;5.488;2024-03-07T01:29:08;8.70;99.90
25440;DHT22;13365;52.208;5.488;2024-03-07T01:31:34;8.40;99.90
25440;DHT22;13365;52.208;5.488;2024-03-07T01:33:59;8.40;99.90
25440;DHT22;13365;52.208;5.488;2024-03-07T01:36:25;8.30;99.90
25440;DHT22;13365;52.208;5.488;2024-03-07T01:38:50;8.00;99.90
25440;DHT22;13365;52.208;5.488;2024-03-07T01:41:16;7.70;99.90
25440;DHT22;13365;52.208;5.488;2024-03-07T01:43:42;7.80;99.90
25440;DHT22;13365;52.208;5.488;2024-03-07T01:46:09;7.70;99.90
25440;DHT22;13365;52.208;5.488;2024-03-07T01:48:35;7.70;99.90
25440;DHT22;13365;52.208;5.488;2024-03-07T01:51:01;7.70;99.90
25440;DHT22;13365;52.208;5.488;2024-03-07T01:53:29;7.70;99.90
25440;DHT22;13365;52.208;5.488;2024-03-07T01:55:56;7.50;99.90
25440;DHT22;13365;52.208;5.488;2024-03-07T01:58:21;7.40;99.90
25440;DHT22;13365;52.208;5.488;2024-03-07T02:00:47;7.30;99.90
25440;DHT22;13365;52.208;5.488;2024-03-07T02:03:13;7.20;99.90
25440;DHT22;13365;52.208;5.488;2024-03-07T02:05:40;7.20;99.90
25440;DHT22;13365;52.208;5.488;2024-03-07T02:08:06;7.30;99.90
25440;DHT22;13365;52.208;5.488;2024-03-07T02:10:31;7.30;99.90
25440;DHT22;13365;52.208;5.488;2024-03-07T02:12:57;7.30;99.90
25440;DHT22;13365;52.208;5.488;2024-03-07T02:15:22;7.40;99.90
25440;DHT22;13365;52.208;5.488;2024-03-07T02:17:48;7.40;99.90
25440;DHT22;13365;52.208;5.488;2024-03-07T02:20:13;7.30;99.90
25440;DHT22;13365;52.208;5.488;2024-03-07T02:22:39;7.20;99.90
25440;DHT22;13365;52.208;5.488;2024-03-07T02:25:06;7.10;99.90
25440;DHT22;13365;52.208;5.488;2024-03-07T02:27:32;7.00;99.90
25440;DHT22;13365;52.208;5.488;2024-03-07T02:29:57;7.20;99.90
25440;DHT22;13365;52.208;5.488;2024-03-07T02:32:23;7.10;99.90
25440;DHT22;13365;52.208;5.488;2024-03-07T02:34:49;7.10;99.90
25440;DHT22;13365;52.208;5.488;2024-03-07T02:37:14;7.00;99.90
25440;DHT22;13365;52.208;5.488;2024-03-07T02:39:40;7.00;99.90
25440;DHT22;13365;52.208;5.488;2024-03-07T02:42:05;7.10;99.90
25440;DHT22;13365;52.208;5.488;2024-03-07T02:44:31;7.10;99.90
25440;DHT22;13365;52.208;5.488;2024-03-07T02:46:57;7.00;99.90
25440;DHT22;13365;52.208;5.488;2024-03-07T02:49:23;7.10;99.90
25440;DHT22;13365;52.208;5.488;2024-03-07T02:51:48;7.30;99.90
25440;DHT22;13365;52.208;5.488;2024-03-07T02:54:14;7.50;99.90
25440;DHT22;13365;52.208;5.488;2024-03-07T02:56:39;7.50;99.90
25440;DHT22;13365;52.208;5.488;2024-03-07T02:59:05;7.40;99.90
25440;DHT22;13365;52.208;5.488;2024-03-07T03:01:32;7.40;99.90
25440;DHT22;13365;52.208;5.488;2024-03-07T03:03:57;7.30;99.90
25440;DHT22;13365;52.208;5.488;2024-03-07T03:06:23;7.40;99.90
25440;DHT22;13365;52.208;5.488;2024-03-07T03:08:48;7.40;99.90
25440;DHT22;13365;52.208;5.488;2024-03-07T03:11:13;7.40;99.90
25440;DHT22;13365;52.208;5.488;2024-03-07T03:13:42;7.40;99.90
25440;DHT22;13365;52.208;5.488;2024-03-07T03:16:08;7.50;99.90
25440;DHT22;13365;52.208;5.488;2024-03-07T03:18:34;7.50;99.90
25440;DHT22;13365;52.208;5.488;2024-03-07T03:21:00;7.60;99.90
25440;DHT22;13365;52.208;5.488;2024-03-07T03:23:25;7.60;99.90
25440;DHT22;13365;52.208;5.488;2024-03-07T03:25:51;7.60;99.90
25440;DHT22;13365;52.208;5.488;2024-03-07T03:28:16;7.60;99.90
25440;DHT22;13365;52.208;5.488;2024-03-07T03:30:44;7.60;99.90
25440;DHT22;13365;52.208;5.488;2024-03-07T03:33:10;7.70;99.90
25440;DHT22;13365;52.208;5.488;2024-03-07T03:35:36;7.60;99.90
25440;DHT22;13365;52.208;5.488;2024-03-07T03:38:01;7.60;99.90
25440;DHT22;13365;52.208;5.488;2024-03-07T03:40:27;7.50;99.90
25440;DHT22;13365;52.208;5.488;2024-03-07T03:42:52;7.60;99.90
25440;DHT22;13365;52.208;5.488;2024-03-07T03:45:18;7.70;99.90
25440;DHT22;13365;52.208;5.488;2024-03-07T03:47:44;7.60;99.90
25440;DHT22;13365;52.208;5.488;2024-03-07T03:50:10;7.70;99.90
25440;DHT22;13365;52.208;5.488;2024-03-07T03:52:39;7.60;99.90
25440;DHT22;13365;52.208;5.488;2024-03-07T03:55:06;7.60;99.90
25440;DHT22;13365;52.208;5.488;2024-03-07T03:57:32;7.60;99.90
25440;DHT22;13365;52.208;5.488;2024-03-07T03:59:58;7.50;99.90
25440;DHT22;13365;52.208;5.488;2024-03-07T04:02:24;7.60;99.90
25440;DHT22;13365;52.208;5.488;2024-03-07T04:04:50;7.50;99.90
25440;DHT22;13365;52.208;5.488;2024-03-07T04:07:17;7.50;99.90
25440;DHT22;13365;52.208;5.488;2024-03-07T04:09:43;7.40;99.90
25440;DHT22;13365;52.208;5.488;2024-03-07T04:12:09;7.30;99.90
25440;DHT22;13365;52.208;5.488;2024-03-07T04:14:38;7.20;99.90
25440;DHT22;13365;52.208;5.488;2024-03-07T04:17:04;7.40;99.90
25440;DHT22;13365;52.208;5.488;2024-03-07T04:19:32;7.20;99.90
25440;DHT22;13365;52.208;5.488;2024-03-07T04:21:58;7.20;99.90
25440;DHT22;13365;52.208;5.488;2024-03-07T04:24:23;7.10;99.90
25440;DHT22;13365;52.208;5.488;2024-03-07T04:26:49;7.20;99.90
25440;DHT22;13365;52.208;5.488;2024-03-07T04:29:14;7.20;99.90
25440;DHT22;13365;52.208;5.488;2024-03-07T04:31:40;7.20;99.90
25440;DHT22;13365;52.208;5.488;2024-03-07T04:34:05;7.20;99.90
25440;DHT22;13365;52.208;5.488;2024-03-07T04:36:31;7.30;99.90
25440;DHT22;13365;52.208;5.488;2024-03-07T04:38:57;7.40;99.90
25440;DHT22;13365;52.208;5.488;2024-03-07T04:41:23;7.30;99.90
25440;DHT22;13365;52.208;5.488;2024-03-07T04:43:48;7.30;99.90
25440;DHT22;13365;52.208;5.488;2024-03-07T04:46:14;7.40;99.90
25440;DHT22;13365;52.208;5.488;2024-03-07T04:48:39;7.40;99.90
25440;DHT22;13365;52.208;5.488;2024-03-07T04:51:05;7.30;99.90
25440;DHT22;13365;52.208;5.488;2024-03-07T04:53:30;7.40;99.90
25440;DHT22;13365;52.208;5.488;2024-03-07T04:55:56;7.30;99.90
25440;DHT22;13365;52.208;5.488;2024-03-07T04:58:21;7.50;99.90
25440;DHT22;13365;52.208;5.488;2024-03-07T05:00:47;7.60;99.90
25440;DHT22;13365;52.208;5.488;2024-03-07T05:03:12;7.60;99.90
25440;DHT22;13365;52.208;5.488;2024-03-07T05:05:38;7.60;99.90
25440;DHT22;13365;52.208;5.488;2024-03-07T05:08:03;7.70;99.90
25440;DHT22;13365;52.208;5.488;2024-03-07T05:10:29;7.80;99.90
25440;DHT22;13365;52.208;5.488;2024-03-07T05:12:56;8.00;99.90
25440;DHT22;13365;52.208;5.488;2024-03-07T05:15:24;8.00;99.90
25440;DHT22;13365;52.208;5.488;2024-03-07T05:17:51;8.10;99.90
25440;DHT22;13365;52.208;5.488;2024-03-07T05:20:17;8.10;99.90
25440;DHT22;13365;52.208;5.488;2024-03-07T05:22:42;8.30;99.90
25440;DHT22;13365;52.208;5.488;2024-03-07T05:25:17;8.30;99.90
25440;DHT22;13365;52.208;5.488;2024-03-07T05:27:44;8.30;99.90
25440;DHT22;13365;52.208;5.488;2024-03-07T05:30:11;8.30;99.90
25440;DHT22;13365;52.208;5.488;2024-03-07T05:32:38;8.30;99.90
25440;DHT22;13365;52.208;5.488;2024-03-07T05:35:04;8.40;99.90
25440;DHT22;13365;52.208;5.488;2024-03-07T05:37:30;8.40;99.90
25440;DHT22;13365;52.208;5.488;2024-03-07T05:39:57;8.50;99.90
25440;DHT22;13365;52.208;5.488;2024-03-07T05:42:22;8.40;99.90
25440;DHT22;13365;52.208;5.488;2024-03-07T05:44:50;8.50;99.90
25440;DHT22;13365;52.208;5.488;2024-03-07T05:47:16;8.70;99.90
25440;DHT22;13365;52.208;5.488;2024-03-07T05:49:42;8.50;99.90
25440;DHT22;13365;52.208;5.488;2024-03-07T05:52:08;8.50;99.90
25440;DHT22;13365;52.208;5.488;2024-03-07T05:54:33;8.20;99.90
25440;DHT22;13365;52.208;5.488;2024-03-07T05:56:59;8.00;99.90
25440;DHT22;13365;52.208;5.488;2024-03-07T05:59:25;7.90;99.90
25440;DHT22;13365;52.208;5.488;2024-03-07T06:01:50;7.70;99.90
25440;DHT22;13365;52.208;5.488;2024-03-07T06:04:16;7.50;99.90
25440;DHT22;13365;52.208;5.488;2024-03-07T06:06:41;7.40;99.90
25440;DHT22;13365;52.208;5.488;2024-03-07T06:09:08;7.30;99.90
25440;DHT22;13365;52.208;5.488;2024-03-07T06:11:42;7.10;99.90
25440;DHT22;13365;52.208;5.488;2024-03-07T06:14:08;7.20;99.90
25440;DHT22;13365;52.208;5.488;2024-03-07T06:16:37;7.10;99.90
25440;DHT22;13365;52.208;5.488;2024-03-07T06:19:03;6.90;99.90
25440;DHT22;13365;52.208;5.488;2024-03-07T06:21:29;6.90;99.90
25440;DHT22;13365;52.208;5.488;2024-03-07T06:23:58;7.10;99.90
25440;DHT22;13365;52.208;5.488;2024-03-07T06:29:03;7.20;99.90
25440;DHT22;13365;52.208;5.488;2024-03-07T06:31:30;7.20;99.90
25440;DHT22;13365;52.208;5.488;2024-03-07T06:33:56;7.20;99.90
25440;DHT22;13365;52.208;5.488;2024-03-07T06:36:22;7.30;99.90
25440;DHT22;13365;52.208;5.488;2024-03-07T06:38:48;7.10;99.90
25440;DHT22;13365;52.208;5.488;2024-03-07T06:41:13;7.00;99.90
25440;DHT22;13365;52.208;5.488;2024-03-07T06:43:39;7.00;99.90
25440;DHT22;13365;52.208;5.488;2024-03-07T06:46:04;7.00;99.90
25440;DHT22;13365;52.208;5.488;2024-03-07T06:48:31;7.00;99.90
25440;DHT22;13365;52.208;5.488;2024-03-07T06:50:57;7.10;99.90
25440;DHT22;13365;52.208;5.488;2024-03-07T06:53:22;7.10;99.90
25440;DHT22;13365;52.208;5.488;2024-03-07T06:55:51;7.10;99.90
25440;DHT22;13365;52.208;5.488;2024-03-07T06:58:19;7.10;99.90
25440;DHT22;13365;52.208;5.488;2024-03-07T07:00:45;7.10;99.90
25440;DHT22;13365;52.208;5.488;2024-03-07T07:03:11;7.00;99.90
25440;DHT22;13365;52.208;5.488;2024-03-07T07:05:39;7.00;99.90
25440;DHT22;13365;52.208;5.488;2024-03-07T07:08:06;7.00;99.90
25440;DHT22;13365;52.208;5.488;2024-03-07T07:10:32;6.80;99.90
25440;DHT22;13365;52.208;5.488;2024-03-07T07:12:57;6.60;99.90
25440;DHT22;13365;52.208;5.488;2024-03-07T07:15:23;6.70;99.90
25440;DHT22;13365;52.208;5.488;2024-03-07T07:17:49;6.70;99.90
25440;DHT22;13365;52.208;5.488;2024-03-07T07:20:15;6.60;99.90
25440;DHT22;13365;52.208;5.488;2024-03-07T07:22:42;6.60;99.90
25440;DHT22;13365;52.208;5.488;2024-03-07T07:25:08;6.50;99.90
25440;DHT22;13365;52.208;5.488;2024-03-07T07:27:40;6.40;99.90
25440;DHT22;13365;52.208;5.488;2024-03-07T07:30:06;6.50;99.90
25440;DHT22;13365;52.208;5.488;2024-03-07T07:32:32;6.60;99.90
25440;DHT22;13365;52.208;5.488;2024-03-07T07:34:57;6.80;99.90
25440;DHT22;13365;52.208;5.488;2024-03-07T07:37:23;6.90;99.90
25440;DHT22;13365;52.208;5.488;2024-03-07T07:39:48;7.00;99.90
25440;DHT22;13365;52.208;5.488;2024-03-07T07:42:14;7.00;99.90
25440;DHT22;13365;52.208;5.488;2024-03-07T07:44:40;7.00;99.90
25440;DHT22;13365;52.208;5.488;2024-03-07T07:47:05;7.00;99.90
25440;DHT22;13365;52.208;5.488;2024-03-07T07:49:31;7.30;99.90
25440;DHT22;13365;52.208;5.488;2024-03-07T07:51:56;7.20;99.90
25440;DHT22;13365;52.208;5.488;2024-03-07T07:54:22;7.40;99.90
25440;DHT22;13365;52.208;5.488;2024-03-07T07:56:47;7.50;99.90
25440;DHT22;13365;52.208;5.488;2024-03-07T07:59:13;7.50;99.90
25440;DHT22;13365;52.208;5.488;2024-03-07T08:01:38;7.60;99.90
25440;DHT22;13365;52.208;5.488;2024-03-07T08:04:05;7.70;99.90
25440;DHT22;13365;52.208;5.488;2024-03-07T08:06:30;7.70;99.90
25440;DHT22;13365;52.208;5.488;2024-03-07T08:08:55;8.00;99.90
25440;DHT22;13365;52.208;5.488;2024-03-07T08:11:21;8.20;99.90
25440;DHT22;13365;52.208;5.488;2024-03-07T08:13:46;8.40;99.90
25440;DHT22;13365;52.208;5.488;2024-03-07T08:16:15;8.30;99.90
25440;DHT22;13365;52.208;5.488;2024-03-07T08:18:41;8.40;99.90
25440;DHT22;13365;52.208;5.488;2024-03-07T08:21:06;8.40;99.90
25440;DHT22;13365;52.208;5.488;2024-03-07T08:23:36;8.30;99.90
25440;DHT22;13365;52.208;5.488;2024-03-07T08:26:01;8.50;99.90
25440;DHT22;13365;52.208;5.488;2024-03-07T08:28:27;8.50;99.90
25440;DHT22;13365;52.208;5.488;2024-03-07T08:30:52;8.60;99.90
25440;DHT22;13365;52.208;5.488;2024-03-07T08:33:18;8.80;99.90
25440;DHT22;13365;52.208;5.488;2024-03-07T08:35:47;9.10;99.90
25440;DHT22;13365;52.208;5.488;2024-03-07T08:38:12;9.40;99.90
25440;DHT22;13365;52.208;5.488;2024-03-07T08:40:39;9.60;99.90
25440;DHT22;13365;52.208;5.488;2024-03-07T08:43:05;9.50;99.90
25440;DHT22;13365;52.208;5.488;2024-03-07T08:45:32;9.50;99.90
25440;DHT22;13365;52.208;5.488;2024-03-07T08:48:02;9.70;99.90
25440;DHT22;13365;52.208;5.488;2024-03-07T08:50:29;9.40;99.90
25440;DHT22;13365;52.208;5.488;2024-03-07T08:52:55;9.20;99.90
25440;DHT22;13365;52.208;5.488;2024-03-07T08:55:24;9.20;99.90
25440;DHT22;13365;52.208;5.488;2024-03-07T08:57:50;9.50;99.90
25440;DHT22;13365;52.208;5.488;2024-03-07T09:00:17;9.60;99.90
25440;DHT22;13365;52.208;5.488;2024-03-07T09:02:58;9.60;99.90
25440;DHT22;13365;52.208;5.488;2024-03-07T09:05:24;9.60;99.90
25440;DHT22;13365;52.208;5.488;2024-03-07T09:07:53;9.90;99.90
25440;DHT22;13365;52.208;5.488;2024-03-07T09:10:19;9.90;99.90
25440;DHT22;13365;52.208;5.488;2024-03-07T09:12:45;9.70;99.90
25440;DHT22;13365;52.208;5.488;2024-03-07T09:15:11;10.00;99.90
25440;DHT22;13365;52.208;5.488;2024-03-07T09:17:37;10.30;99.90
25440;DHT22;13365;52.208;5.488;2024-03-07T09:20:06;10.30;99.90
25440;DHT22;13365;52.208;5.488;2024-03-07T09:22:33;10.40;99.90
25440;DHT22;13365;52.208;5.488;2024-03-07T09:24:59;10.50;99.90
25440;DHT22;13365;52.208;5.488;2024-03-07T09:27:31;10.90;99.90
25440;DHT22;13365;52.208;5.488;2024-03-07T09:29:57;11.00;99.90
25440;DHT22;13365;52.208;5.488;2024-03-07T09:32:23;10.80;99.90
25440;DHT22;13365;52.208;5.488;2024-03-07T09:34:49;10.90;99.90
25440;DHT22;13365;52.208;5.488;2024-03-07T09:37:15;11.00;99.90
25440;DHT22;13365;52.208;5.488;2024-03-07T09:39:40;10.90;99.90
25440;DHT22;13365;52.208;5.488;2024-03-07T09:42:07;11.10;99.90
25440;DHT22;13365;52.208;5.488;2024-03-07T09:44:34;11.40;99.90
25440;DHT22;13365;52.208;5.488;2024-03-07T09:47:01;11.50;99.90
25440;DHT22;13365;52.208;5.488;2024-03-07T09:49:28;11.60;99.90
25440;DHT22;13365;52.208;5.488;2024-03-07T09:51:53;11.90;99.90
25440;DHT22;13365;52.208;5.488;2024-03-07T09:54:24;12.30;99.90
25440;DHT22;13365;52.208;5.488;2024-03-07T09:56:51;12.20;99.90
25440;DHT22;13365;52.208;5.488;2024-03-07T09:59:18;12.20;99.90
25440;DHT22;13365;52.208;5.488;2024-03-07T10:01:47;12.40;99.90
25440;DHT22;13365;52.208;5.488;2024-03-07T10:04:13;12.50;99.40
25440;DHT22;13365;52.208;5.488;2024-03-07T10:06:40;12.50;99.90
25440;DHT22;13365;52.208;5.488;2024-03-07T10:09:05;12.90;99.90
25440;DHT22;13365;52.208;5.488;2024-03-07T10:11:32;13.30;99.90
25440;DHT22;13365;52.208;5.488;2024-03-07T10:13:58;13.40;98.70
25440;DHT22;13365;52.208;5.488;2024-03-07T10:16:24;13.50;97.50
25440;DHT22;13365;52.208;5.488;2024-03-07T10:18:49;13.50;98.40
25440;DHT22;13365;52.208;5.488;2024-03-07T10:21:19;13.70;98.30
25440;DHT22;13365;52.208;5.488;2024-03-07T10:23:44;13.40;96.00
25440;DHT22;13365;52.208;5.488;2024-03-07T10:26:10;13.20;96.70
25440;DHT22;13365;52.208;5.488;2024-03-07T10:28:39;13.50;97.90
25440;DHT22;13365;52.208;5.488;2024-03-07T10:31:05;13.70;97.10
25440;DHT22;13365;52.208;5.488;2024-03-07T10:33:42;13.90;97.30
25440;DHT22;13365;52.208;5.488;2024-03-07T10:36:09;13.90;96.60
25440;DHT22;13365;52.208;5.488;2024-03-07T10:38:39;13.90;95.50
25440;DHT22;13365;52.208;5.488;2024-03-07T10:41:05;13.50;96.40
25440;DHT22;13365;52.208;5.488;2024-03-07T10:43:31;13.50;97.50
25440;DHT22;13365;52.208;5.488;2024-03-07T10:46:04;13.70;96.50
25440;DHT22;13365;52.208;5.488;2024-03-07T10:48:32;14.00;97.70
25440;DHT22;13365;52.208;5.488;2024-03-07T10:51:06;14.30;96.80
25440;DHT22;13365;52.208;5.488;2024-03-07T10:59:18;15.00;94.80
25440;DHT22;13365;52.208;5.488;2024-03-07T11:04:21;14.30;94.20
25440;DHT22;13365;52.208;5.488;2024-03-07T11:06:48;14.20;95.20
25440;DHT22;13365;52.208;5.488;2024-03-07T11:09:15;14.60;95.50
25440;DHT22;13365;52.208;5.488;2024-03-07T11:11:48;14.40;93.80
25440;DHT22;13365;52.208;5.488;2024-03-07T11:14:13;14.60;94.10
25440;DHT22;13365;52.208;5.488;2024-03-07T11:16:41;14.70;93.80
25440;DHT22;13365;52.208;5.488;2024-03-07T11:21:50;14.30;94.20
25440;DHT22;13365;52.208;5.488;2024-03-07T11:26:51;14.30;94.40
25440;DHT22;13365;52.208;5.488;2024-03-07T11:30:00;14.30;94.30
25440;DHT22;13365;52.208;5.488;2024-03-07T11:32:11;14.20;93.90
25440;DHT22;13365;52.208;5.488;2024-03-07T11:34:38;14.30;93.90
25440;DHT22;13365;52.208;5.488;2024-03-07T11:37:07;14.40;94.60
25440;DHT22;13365;52.208;5.488;2024-03-07T11:39:48;14.20;94.40
25440;DHT22;13365;52.208;5.488;2024-03-07T11:42:25;14.40;94.20
25440;DHT22;13365;52.208;5.488;2024-03-07T11:44:51;14.30;92.90
25440;DHT22;13365;52.208;5.488;2024-03-07T11:47:17;14.60;94.00
25440;DHT22;13365;52.208;5.488;2024-03-07T11:49:43;14.80;93.40
25440;DHT22;13365;52.208;5.488;2024-03-07T11:52:08;14.70;93.00
25440;DHT22;13365;52.208;5.488;2024-03-07T11:54:38;14.80;94.00
25440;DHT22;13365;52.208;5.488;2024-03-07T11:57:07;15.20;93.80
25440;DHT22;13365;52.208;5.488;2024-03-07T11:59:44;15.60;93.90
25440;DHT22;13365;52.208;5.488;2024-03-07T12:02:17;15.90;93.30
25440;DHT22;13365;52.208;5.488;2024-03-07T12:04:46;15.90;92.60
25440;DHT22;13365;52.208;5.488;2024-03-07T12:07:12;15.80;91.70
25440;DHT22;13365;52.208;5.488;2024-03-07T12:09:38;15.70;91.60
25440;DHT22;13365;52.208;5.488;2024-03-07T12:12:04;15.90;90.90
25440;DHT22;13365;52.208;5.488;2024-03-07T12:14:30;15.70;90.70
25440;DHT22;13365;52.208;5.488;2024-03-07T12:16:56;15.70;91.50
25440;DHT22;13365;52.208;5.488;2024-03-07T12:19:22;15.80;91.70
25440;DHT22;13365;52.208;5.488;2024-03-07T12:21:48;15.60;91.20
25440;DHT22;13365;52.208;5.488;2024-03-07T12:24:14;15.50;90.60
25440;DHT22;13365;52.208;5.488;2024-03-07T12:26:40;15.30;90.70
25440;DHT22;13365;52.208;5.488;2024-03-07T12:29:10;15.50;91.40
25440;DHT22;13365;52.208;5.488;2024-03-07T12:31:41;15.50;90.90
25440;DHT22;13365;52.208;5.488;2024-03-07T12:34:07;15.50;91.00
25440;DHT22;13365;52.208;5.488;2024-03-07T12:36:34;15.50;90.90
25440;DHT22;13365;52.208;5.488;2024-03-07T12:39:23;15.20;90.80
25440;DHT22;13365;52.208;5.488;2024-03-07T12:41:57;15.10;90.70
25440;DHT22;13365;52.208;5.488;2024-03-07T12:44:22;15.30;92.00
25440;DHT22;13365;52.208;5.488;2024-03-07T12:46:50;14.80;89.50
25440;DHT22;13365;52.208;5.488;2024-03-07T12:49:19;14.30;91.90
25440;DHT22;13365;52.208;5.488;2024-03-07T12:51:44;14.40;91.70
25440;DHT22;13365;52.208;5.488;2024-03-07T12:54:10;14.40;91.30
25440;DHT22;13365;52.208;5.488;2024-03-07T12:56:36;14.30;92.20
25440;DHT22;13365;52.208;5.488;2024-03-07T12:59:05;14.30;92.60
25440;DHT22;13365;52.208;5.488;2024-03-07T13:01:34;14.10;92.60
25440;DHT22;13365;52.208;5.488;2024-03-07T13:04:02;13.40;93.00
25440;DHT22;13365;52.208;5.488;2024-03-07T13:06:30;13.20;94.20
25440;DHT22;13365;52.208;5.488;2024-03-07T13:08:56;13.20;94.30
25440;DHT22;13365;52.208;5.488;2024-03-07T13:11:24;13.20;93.90
25440;DHT22;13365;52.208;5.488;2024-03-07T13:13:53;13.50;95.50
25440;DHT22;13365;52.208;5.488;2024-03-07T13:16:18;13.90;94.70
25440;DHT22;13365;52.208;5.488;2024-03-07T13:18:44;13.70;93.00
25440;DHT22;13365;52.208;5.488;2024-03-07T13:21:11;13.10;92.70
25440;DHT22;13365;52.208;5.488;2024-03-07T13:23:43;12.40;94.70
25440;DHT22;13365;52.208;5.488;2024-03-07T13:26:08;12.40;95.30
25440;DHT22;13365;52.208;5.488;2024-03-07T13:28:42;12.40;95.80
25440;DHT22;13365;52.208;5.488;2024-03-07T13:31:07;12.50;95.60
25440;DHT22;13365;52.208;5.488;2024-03-07T13:33:33;12.40;95.90
25440;DHT22;13365;52.208;5.488;2024-03-07T13:35:58;12.40;96.70
25440;DHT22;13365;52.208;5.488;2024-03-07T13:38:26;12.40;96.60
25440;DHT22;13365;52.208;5.488;2024-03-07T13:40:51;12.40;97.70
25440;DHT22;13365;52.208;5.488;2024-03-07T13:43:18;12.50;96.90
25440;DHT22;13365;52.208;5.488;2024-03-07T13:45:43;12.50;97.40
25440;DHT22;13365;52.208;5.488;2024-03-07T13:48:10;12.70;97.10
25440;DHT22;13365;52.208;5.488;2024-03-07T13:50:38;12.60;98.00
25440;DHT22;13365;52.208;5.488;2024-03-07T13:53:06;12.80;97.50
25440;DHT22;13365;52.208;5.488;2024-03-07T13:55:48;12.90;97.70
25440;DHT22;13365;52.208;5.488;2024-03-07T14:06:42;12.20;97.80
25440;DHT22;13365;52.208;5.488;2024-03-07T14:22:34;12.00;99.90
25440;DHT22;13365;52.208;5.488;2024-03-07T14:27:35;12.40;99.90
25440;DHT22;13365;52.208;5.488;2024-03-07T14:32:51;12.20;99.90
25440;DHT22;13365;52.208;5.488;2024-03-07T14:40:32;11.90;99.90
25440;DHT22;13365;52.208;5.488;2024-03-07T14:42:59;11.80;99.90
25440;DHT22;13365;52.208;5.488;2024-03-07T14:45:27;11.40;99.90
25440;DHT22;13365;52.208;5.488;2024-03-07T14:47:55;11.20;99.90
25440;DHT22;13365;52.208;5.488;2024-03-07T14:50:21;11.20;99.90
25440;DHT22;13365;52.208;5.488;2024-03-07T14:52:48;11.30;99.90
25440;DHT22;13365;52.208;5.488;2024-03-07T14:55:14;11.50;99.90
25440;DHT22;13365;52.208;5.488;2024-03-07T14:57:42;11.70;99.90
25440;DHT22;13365;52.208;5.488;2024-03-07T15:00:10;11.70;99.90
25440;DHT22;13365;52.208;5.488;2024-03-07T15:02:45;11.70;99.90
25440;DHT22;13365;52.208;5.488;2024-03-07T15:05:11;11.70;99.90
25440;DHT22;13365;52.208;5.488;2024-03-07T15:07:36;11.90;99.90
25440;DHT22;13365;52.208;5.488;2024-03-07T15:10:02;11.80;99.90
25440;DHT22;13365;52.208;5.488;2024-03-07T15:12:31;12.10;99.90
25440;DHT22;13365;52.208;5.488;2024-03-07T15:14:57;12.40;99.80
25440;DHT22;13365;52.208;5.488;2024-03-07T15:17:22;12.40;99.50
25440;DHT22;13365;52.208;5.488;2024-03-07T15:19:48;12.30;98.70
25440;DHT22;13365;52.208;5.488;2024-03-07T15:22:14;12.30;99.40
25440;DHT22;13365;52.208;5.488;2024-03-07T15:24:41;12.00;99.10
25440;DHT22;13365;52.208;5.488;2024-03-07T15:27:07;12.00;99.70
25440;DHT22;13365;52.208;5.488;2024-03-07T15:29:35;12.20;99.50
25440;DHT22;13365;52.208;5.488;2024-03-07T15:32:01;11.90;99.10
25440;DHT22;13365;52.208;5.488;2024-03-07T15:34:28;11.90;99.80
25440;DHT22;13365;52.208;5.488;2024-03-07T15:37:00;12.20;99.40
25440;DHT22;13365;52.208;5.488;2024-03-07T15:39:29;12.30;99.40
25440;DHT22;13365;52.208;5.488;2024-03-07T15:41:56;12.30;99.30
25440;DHT22;13365;52.208;5.488;2024-03-07T15:44:21;12.40;98.80
25440;DHT22;13365;52.208;5.488;2024-03-07T15:46:47;12.70;98.70
25440;DHT22;13365;52.208;5.488;2024-03-07T15:49:13;12.50;98.00
25440;DHT22;13365;52.208;5.488;2024-03-07T15:51:39;12.10;98.70
25440;DHT22;13365;52.208;5.488;2024-03-07T15:54:04;11.70;99.00
25440;DHT22;13365;52.208;5.488;2024-03-07T15:56:30;11.50;99.70
25440;DHT22;13365;52.208;5.488;2024-03-07T15:58:57;11.20;99.90
25440;DHT22;13365;52.208;5.488;2024-03-07T16:01:22;11.10;99.90
25440;DHT22;13365;52.208;5.488;2024-03-07T16:03:48;11.20;99.90
25440;DHT22;13365;52.208;5.488;2024-03-07T16:06:23;11.20;99.90
25440;DHT22;13365;52.208;5.488;2024-03-07T16:09:10;11.30;99.90
25440;DHT22;13365;52.208;5.488;2024-03-07T16:11:38;11.50;99.90
25440;DHT22;13365;52.208;5.488;2024-03-07T16:14:04;11.60;99.90
25440;DHT22;13365;52.208;5.488;2024-03-07T16:16:30;11.50;99.90
25440;DHT22;13365;52.208;5.488;2024-03-07T16:18:56;11.60;99.90
25440;DHT22;13365;52.208;5.488;2024-03-07T16:21:23;11.60;99.90
25440;DHT22;13365;52.208;5.488;2024-03-07T16:23:49;11.60;99.90
25440;DHT22;13365;52.208;5.488;2024-03-07T16:26:16;11.90;99.90